Cole Camp, MO

8:50 PM CDT on March 27, 2015 (GMT -0500)
cole camp Lincoln | | Change Station
CLOSE
Current Station
Personal Weather Station
Location: Cole Camp, MO
Elevation: 905 ft
Nearby Weather Stations

Elev 905 ft 38.40 °N, 93.20 °W | Updated 6 minutes ago

Overcast
Overcast
39.0 °F
Feels Like 39 °F
N
0.0
Wind Variable Wind from NNE
Gusts 0.0 mph

Today
High -- | Low -- °F
--% Chance of Precip.
Yesterday
High -- | Low -- °F
Precip. -- in
7:05 AM 7:31 PM
First Quarter, 57% visible
Pressure 30.19 in
Visibility 10.0 miles
Clouds Overcast 10000 ft
Windchill 39 °F
Dew Point 24 °F
Humidity 54%
Rainfall 0.00 in
Snow Depth Not available.
UV 0 out of 12
Pollen 8.00 out of 12
Air Quality Not available.
Flu Activity Not available.
METAR KDMO 280053Z AUTO 00000KT 10SM OVC100 05/M04 A3017 RMK AO2 SLP222 T00501044

More Conditions Fewer Conditions

Pressure 30.19 in
Visibility 10.0 miles
Clouds Overcast 10000 ft
Windchill 39 °F
Dew Point 24 °F
Humidity 54%
Rainfall 0.00 in
Snow Depth Not available.
UV 0 out of 12
Pollen 8.00 out of 12
Air Quality Not available.
Flu Activity Not available.
METAR KDMO 280053Z AUTO 00000KT 10SM OVC100 05/M04 A3017 RMK AO2 SLP222 T00501044

More Conditions Fewer Conditions

10-Day Weather Forecast

Almanac

Astronomy

Mar. 27, 2015 Rise Set
Actual Time
Civil Twilight
Nautical Twilight
Astronomical Twilight
Moon
Length of Visible Light
Length of Day
Tomorrow will be .
, % of the Moon is Illuminated

Today's Extremes

State Highs State Lows

Community

WunderPhotos

Upload Photos

1,808,911 photos uploaded!

WunderBlogs® & News

Nearby

Air Quality

  Air Quality AQ Index Pollutant
Not available.

Snow Depth

Station Depth Elevation

Earthquake Activity

City Distance Mag. Time & Date
Minimum magnitude displayed is 2.5.

Coastal Water Temperatures

Place Temperature

Stations

Nearby Weather Stations

Station Location Temp. Windchill Dew Point Humidity Wind Precip. Elev Updated Type